sensor_id;sensor_type;location;lat;lon;timestamp;pressure;altitude;pressure_sealevel;temperature;humidity
8051;BME280;4068;42.158;24.732;2022-08-01T00:00:20;99277.13;;;23.06;78.76
8051;BME280;4068;42.158;24.732;2022-08-01T00:02:46;99280.22;;;23.09;78.50
8051;BME280;4068;42.158;24.732;2022-08-01T00:05:11;99274.41;;;23.13;78.32
8051;BME280;4068;42.158;24.732;2022-08-01T00:07:38;99277.72;;;23.21;76.66
8051;BME280;4068;42.158;24.732;2022-08-01T00:10:05;99263.97;;;23.23;75.89
8051;BME280;4068;42.158;24.732;2022-08-01T00:12:31;99266.25;;;23.33;75.39
8051;BME280;4068;42.158;24.732;2022-08-01T00:14:56;99258.31;;;23.38;74.60
8051;BME280;4068;42.158;24.732;2022-08-01T00:17:21;99252.72;;;23.33;74.20
8051;BME280;4068;42.158;24.732;2022-08-01T00:19:47;99255.00;;;23.36;73.44
8051;BME280;4068;42.158;24.732;2022-08-01T00:22:12;99266.81;;;23.48;72.58
8051;BME280;4068;42.158;24.732;2022-08-01T00:24:38;99258.47;;;23.50;71.62
8051;BME280;4068;42.158;24.732;2022-08-01T00:27:03;99261.97;;;23.64;71.20
8051;BME280;4068;42.158;24.732;2022-08-01T00:29:29;99239.72;;;23.55;70.62
8051;BME280;4068;42.158;24.732;2022-08-01T00:31:54;99266.91;;;23.73;70.49
8051;BME280;4068;42.158;24.732;2022-08-01T00:34:19;99259.66;;;23.67;69.89
8051;BME280;4068;42.158;24.732;2022-08-01T00:36:45;99270.06;;;23.70;70.26
8051;BME280;4068;42.158;24.732;2022-08-01T00:39:11;99253.69;;;23.52;70.42
8051;BME280;4068;42.158;24.732;2022-08-01T00:41:37;99267.84;;;23.54;70.43
8051;BME280;4068;42.158;24.732;2022-08-01T00:44:05;99272.44;;;23.47;71.17
8051;BME280;4068;42.158;24.732;2022-08-01T00:46:32;99266.25;;;23.33;71.85
8051;BME280;4068;42.158;24.732;2022-08-01T00:48:58;99255.50;;;23.13;71.92
8051;BME280;4068;42.158;24.732;2022-08-01T00:51:24;99277.34;;;23.11;72.82
8051;BME280;4068;42.158;24.732;2022-08-01T00:53:50;99281.31;;;22.95;73.28
8051;BME280;4068;42.158;24.732;2022-08-01T00:56:17;99281.94;;;22.84;73.81
8051;BME280;4068;42.158;24.732;2022-08-01T00:58:42;99268.44;;;22.70;74.33
8051;BME280;4068;42.158;24.732;2022-08-01T01:01:09;99279.03;;;22.65;74.79
8051;BME280;4068;42.158;24.732;2022-08-01T01:03:34;99272.38;;;22.54;74.81
8051;BME280;4068;42.158;24.732;2022-08-01T01:09:02;99263.41;;;22.27;75.89
8051;BME280;4068;42.158;24.732;2022-08-01T01:11:43;99255.72;;;22.17;76.28
8051;BME280;4068;42.158;24.732;2022-08-01T01:14:15;99278.78;;;22.20;76.52
8051;BME280;4068;42.158;24.732;2022-08-01T01:16:42;99278.34;;;22.03;77.65
8051;BME280;4068;42.158;24.732;2022-08-01T01:19:15;99263.56;;;21.85;77.94
8051;BME280;4068;42.158;24.732;2022-08-01T01:29:58;99284.03;;;21.60;79.98
8051;BME280;4068;42.158;24.732;2022-08-01T01:32:58;99285.47;;;21.55;80.25
8051;BME280;4068;42.158;24.732;2022-08-01T01:35:28;99281.66;;;21.43;80.51
8051;BME280;4068;42.158;24.732;2022-08-01T01:38:02;99274.38;;;21.37;81.11
8051;BME280;4068;42.158;24.732;2022-08-01T01:40:30;99275.78;;;21.33;80.84
8051;BME280;4068;42.158;24.732;2022-08-01T01:42:56;99286.19;;;21.36;80.90
8051;BME280;4068;42.158;24.732;2022-08-01T01:45:24;99267.91;;;21.31;80.56
8051;BME280;4068;42.158;24.732;2022-08-01T01:47:50;99289.53;;;21.38;80.70
8051;BME280;4068;42.158;24.732;2022-08-01T01:50:20;99266.03;;;21.32;80.22
8051;BME280;4068;42.158;24.732;2022-08-01T01:52:46;99279.16;;;21.42;79.97
8051;BME280;4068;42.158;24.732;2022-08-01T01:55:13;99263.94;;;21.27;80.51
8051;BME280;4068;42.158;24.732;2022-08-01T01:57:41;99278.09;;;21.36;80.25
8051;BME280;4068;42.158;24.732;2022-08-01T02:00:09;99264.16;;;21.26;80.81
8051;BME280;4068;42.158;24.732;2022-08-01T02:02:36;99281.75;;;21.21;81.48
8051;BME280;4068;42.158;24.732;2022-08-01T02:05:02;99263.41;;;21.03;82.24
8051;BME280;4068;42.158;24.732;2022-08-01T02:07:29;99261.78;;;21.09;82.27
8051;BME280;4068;42.158;24.732;2022-08-01T02:09:56;99280.25;;;21.12;82.89
8051;BME280;4068;42.158;24.732;2022-08-01T02:12:23;99286.75;;;21.25;81.54
8051;BME280;4068;42.158;24.732;2022-08-01T02:14:51;99279.97;;;21.35;80.93
8051;BME280;4068;42.158;24.732;2022-08-01T02:17:20;99277.31;;;21.49;79.94
8051;BME280;4068;42.158;24.732;2022-08-01T02:19:46;99278.84;;;21.58;79.05
8051;BME280;4068;42.158;24.732;2022-08-01T02:22:32;99280.72;;;21.64;78.62
8051;BME280;4068;42.158;24.732;2022-08-01T02:25:13;99282.00;;;21.68;78.57
8051;BME280;4068;42.158;24.732;2022-08-01T02:30:22;99282.59;;;21.70;78.32
8051;BME280;4068;42.158;24.732;2022-08-01T02:32:58;99283.22;;;21.66;78.27
8051;BME280;4068;42.158;24.732;2022-08-01T02:35:28;99283.63;;;21.63;78.07
8051;BME280;4068;42.158;24.732;2022-08-01T02:37:56;99272.78;;;21.49;78.28
8051;BME280;4068;42.158;24.732;2022-08-01T02:40:23;99279.19;;;21.48;78.31
8051;BME280;4068;42.158;24.732;2022-08-01T02:42:52;99263.97;;;21.34;78.68
8051;BME280;4068;42.158;24.732;2022-08-01T02:45:24;99278.31;;;21.41;78.53
8051;BME280;4068;42.158;24.732;2022-08-01T02:47:52;99281.84;;;21.35;78.62
8051;BME280;4068;42.158;24.732;2022-08-01T02:50:20;99283.88;;;21.33;78.34
8051;BME280;4068;42.158;24.732;2022-08-01T02:52:48;99268.47;;;21.20;78.55
8051;BME280;4068;42.158;24.732;2022-08-01T02:55:14;99277.63;;;21.26;78.51
8051;BME280;4068;42.158;24.732;2022-08-01T02:57:42;99273.66;;;21.21;78.06
8051;BME280;4068;42.158;24.732;2022-08-01T03:00:09;99268.91;;;21.24;77.75
8051;BME280;4068;42.158;24.732;2022-08-01T03:02:35;99268.50;;;21.27;77.21
8051;BME280;4068;42.158;24.732;2022-08-01T03:05:02;99270.00;;;21.29;76.81
8051;BME280;4068;42.158;24.732;2022-08-01T03:07:29;99253.72;;;21.09;77.29
8051;BME280;4068;42.158;24.732;2022-08-01T03:09:55;99272.63;;;21.23;76.99
8051;BME280;4068;42.158;24.732;2022-08-01T03:12:26;99262.66;;;21.16;76.89
8051;BME280;4068;42.158;24.732;2022-08-01T03:14:54;99265.56;;;21.21;76.58
8051;BME280;4068;42.158;24.732;2022-08-01T03:17:24;99266.63;;;21.27;76.38
8051;BME280;4068;42.158;24.732;2022-08-01T03:19:52;99263.13;;;21.27;75.70
8051;BME280;4068;42.158;24.732;2022-08-01T03:22:18;99263.13;;;21.27;75.56
8051;BME280;4068;42.158;24.732;2022-08-01T03:24:51;99263.16;;;21.40;74.64
8051;BME280;4068;42.158;24.732;2022-08-01T03:27:19;99264.63;;;21.43;74.74
8051;BME280;4068;42.158;24.732;2022-08-01T03:29:46;99268.41;;;21.48;73.51
8051;BME280;4068;42.158;24.732;2022-08-01T03:32:12;99270.13;;;21.63;73.62
8051;BME280;4068;42.158;24.732;2022-08-01T03:34:39;99262.13;;;21.89;72.03
8051;BME280;4068;42.158;24.732;2022-08-01T03:37:15;99254.47;;;22.13;71.07
8051;BME280;4068;42.158;24.732;2022-08-01T03:40:25;99228.53;;;22.12;69.83
8051;BME280;4068;42.158;24.732;2022-08-01T03:42:58;99258.47;;;22.44;69.08
8051;BME280;4068;42.158;24.732;2022-08-01T03:45:35;99269.06;;;22.66;68.27
8051;BME280;4068;42.158;24.732;2022-08-01T03:48:07;99255.75;;;22.71;67.64
8051;BME280;4068;42.158;24.732;2022-08-01T03:50:34;99254.47;;;22.80;66.86
8051;BME280;4068;42.158;24.732;2022-08-01T03:53:02;99273.81;;;22.90;65.97
8051;BME280;4068;42.158;24.732;2022-08-01T03:55:30;99260.47;;;23.02;65.41
8051;BME280;4068;42.158;24.732;2022-08-01T03:57:56;99273.38;;;23.20;65.11
8051;BME280;4068;42.158;24.732;2022-08-01T04:00:24;99269.59;;;23.28;64.03
8051;BME280;4068;42.158;24.732;2022-08-01T04:02:50;99261.69;;;23.26;63.78
8051;BME280;4068;42.158;24.732;2022-08-01T04:05:17;99275.16;;;23.40;63.38
8051;BME280;4068;42.158;24.732;2022-08-01T04:07:50;99273.47;;;23.46;63.19
8051;BME280;4068;42.158;24.732;2022-08-01T04:10:27;99272.84;;;23.50;62.93
8051;BME280;4068;42.158;24.732;2022-08-01T04:12:52;99269.09;;;23.51;62.90
8051;BME280;4068;42.158;24.732;2022-08-01T04:15:19;99283.69;;;23.50;63.61
8051;BME280;4068;42.158;24.732;2022-08-01T04:17:45;99287.00;;;23.46;63.36
8051;BME280;4068;42.158;24.732;2022-08-01T04:20:11;99279.53;;;23.41;63.59
8051;BME280;4068;42.158;24.732;2022-08-01T04:22:38;99283.06;;;23.41;63.22
8051;BME280;4068;42.158;24.732;2022-08-01T04:25:09;99284.75;;;23.36;62.98
8051;BME280;4068;42.158;24.732;2022-08-01T04:27:38;99256.72;;;23.17;62.77
8051;BME280;4068;42.158;24.732;2022-08-01T04:30:06;99276.69;;;23.22;63.22
8051;BME280;4068;42.158;24.732;2022-08-01T04:32:34;99245.09;;;23.03;63.61
8051;BME280;4068;42.158;24.732;2022-08-01T04:35:06;99286.47;;;23.23;63.34
8051;BME280;4068;42.158;24.732;2022-08-01T04:37:33;99285.03;;;23.14;63.44
8051;BME280;4068;42.158;24.732;2022-08-01T04:40:05;99284.19;;;23.14;64.18
8051;BME280;4068;42.158;24.732;2022-08-01T04:42:32;99285.00;;;23.21;64.29
8051;BME280;4068;42.158;24.732;2022-08-01T04:44:58;99285.44;;;23.18;65.10
8051;BME280;4068;42.158;24.732;2022-08-01T04:47:25;99276.69;;;23.16;65.58
8051;BME280;4068;42.158;24.732;2022-08-01T04:49:51;99286.47;;;23.17;65.99
8051;BME280;4068;42.158;24.732;2022-08-01T04:52:16;99280.44;;;23.21;65.73
8051;BME280;4068;42.158;24.732;2022-08-01T04:54:43;99278.94;;;23.39;64.87
8051;BME280;4068;42.158;24.732;2022-08-01T04:57:09;99278.72;;;23.40;65.86
8051;BME280;4068;42.158;24.732;2022-08-01T04:59:36;99282.00;;;23.49;64.56
8051;BME280;4068;42.158;24.732;2022-08-01T05:02:17;99279.88;;;23.58;63.64
8051;BME280;4068;42.158;24.732;2022-08-01T05:04:44;99275.72;;;23.62;62.08
8051;BME280;4068;42.158;24.732;2022-08-01T05:07:11;99279.06;;;23.57;62.02
8051;BME280;4068;42.158;24.732;2022-08-01T05:09:37;99269.50;;;23.55;61.80
8051;BME280;4068;42.158;24.732;2022-08-01T05:12:04;99276.16;;;23.59;60.92
8051;BME280;4068;42.158;24.732;2022-08-01T05:14:31;99276.72;;;23.68;61.19
8051;BME280;4068;42.158;24.732;2022-08-01T05:17:02;99291.44;;;23.78;60.88
8051;BME280;4068;42.158;24.732;2022-08-01T05:19:31;99285.59;;;23.88;61.19
8051;BME280;4068;42.158;24.732;2022-08-01T05:22:05;99248.56;;;23.75;60.57
8051;BME280;4068;42.158;24.732;2022-08-01T05:24:32;99280.50;;;24.05;60.08
8051;BME280;4068;42.158;24.732;2022-08-01T05:26:59;99268.38;;;24.15;57.96
8051;BME280;4068;42.158;24.732;2022-08-01T05:29:24;99268.41;;;24.08;57.23
8051;BME280;4068;42.158;24.732;2022-08-01T05:31:51;99274.63;;;24.08;57.16
8051;BME280;4068;42.158;24.732;2022-08-01T05:34:17;99241.41;;;23.94;56.75
8051;BME280;4068;42.158;24.732;2022-08-01T05:36:43;99265.81;;;24.20;55.54
8051;BME280;4068;42.158;24.732;2022-08-01T05:39:09;99259.53;;;24.26;55.69
8051;BME280;4068;42.158;24.732;2022-08-01T05:41:35;99273.41;;;24.36;55.38
8051;BME280;4068;42.158;24.732;2022-08-01T05:44:02;99261.94;;;24.34;55.05
8051;BME280;4068;42.158;24.732;2022-08-01T05:46:27;99276.78;;;24.57;52.82
8051;BME280;4068;42.158;24.732;2022-08-01T05:48:53;99274.03;;;24.63;51.93
8051;BME280;4068;42.158;24.732;2022-08-01T05:51:18;99279.03;;;24.67;51.60
8051;BME280;4068;42.158;24.732;2022-08-01T05:53:44;99283.16;;;24.69;50.61
8051;BME280;4068;42.158;24.732;2022-08-01T05:56:09;99265.00;;;24.70;50.29
8051;BME280;4068;42.158;24.732;2022-08-01T05:58:35;99274.09;;;24.82;49.71
8051;BME280;4068;42.158;24.732;2022-08-01T06:01:00;99272.59;;;24.86;50.36
8051;BME280;4068;42.158;24.732;2022-08-01T06:03:26;99273.56;;;24.92;50.15
8051;BME280;4068;42.158;24.732;2022-08-01T06:05:51;99277.00;;;25.06;50.78
8051;BME280;4068;42.158;24.732;2022-08-01T06:08:18;99264.75;;;25.15;50.09
8051;BME280;4068;42.158;24.732;2022-08-01T06:10:43;99268.09;;;25.17;48.04
8051;BME280;4068;42.158;24.732;2022-08-01T06:13:08;99276.59;;;25.21;47.67
8051;BME280;4068;42.158;24.732;2022-08-01T06:15:34;99265.06;;;25.25;47.96
8051;BME280;4068;42.158;24.732;2022-08-01T06:17:59;99271.88;;;25.35;47.90
8051;BME280;4068;42.158;24.732;2022-08-01T06:20:25;99266.81;;;25.38;46.28
8051;BME280;4068;42.158;24.732;2022-08-01T06:22:50;99269.91;;;25.42;46.57
8051;BME280;4068;42.158;24.732;2022-08-01T06:25:17;99263.81;;;25.46;46.09
8051;BME280;4068;42.158;24.732;2022-08-01T06:27:43;99260.09;;;25.59;46.85
8051;BME280;4068;42.158;24.732;2022-08-01T06:30:09;99255.94;;;25.75;46.81
8051;BME280;4068;42.158;24.732;2022-08-01T06:32:35;99257.56;;;25.76;46.08
8051;BME280;4068;42.158;24.732;2022-08-01T06:35:00;99256.56;;;25.89;44.74
8051;BME280;4068;42.158;24.732;2022-08-01T06:37:30;99260.00;;;25.96;44.12
8051;BME280;4068;42.158;24.732;2022-08-01T06:40:00;99253.28;;;25.99;44.67
8051;BME280;4068;42.158;24.732;2022-08-01T06:42:26;99243.91;;;26.13;44.35
8051;BME280;4068;42.158;24.732;2022-08-01T06:44:51;99248.19;;;26.21;44.04
8051;BME280;4068;42.158;24.732;2022-08-01T06:47:17;99247.47;;;26.26;43.78
8051;BME280;4068;42.158;24.732;2022-08-01T06:49:42;99250.34;;;26.31;44.51
8051;BME280;4068;42.158;24.732;2022-08-01T06:52:08;99222.53;;;26.29;43.14
8051;BME280;4068;42.158;24.732;2022-08-01T06:54:33;99247.97;;;26.46;43.64
8051;BME280;4068;42.158;24.732;2022-08-01T06:56:58;99253.53;;;26.63;41.66
8051;BME280;4068;42.158;24.732;2022-08-01T06:59:24;99252.94;;;26.61;42.50
8051;BME280;4068;42.158;24.732;2022-08-01T07:01:49;99241.38;;;26.54;42.52
8051;BME280;4068;42.158;24.732;2022-08-01T07:04:15;99235.34;;;26.64;42.90
8051;BME280;4068;42.158;24.732;2022-08-01T07:06:40;99229.34;;;26.74;42.95
8051;BME280;4068;42.158;24.732;2022-08-01T07:09:05;99208.59;;;26.61;42.54
8051;BME280;4068;42.158;24.732;2022-08-01T07:11:31;99233.72;;;26.86;42.42
8051;BME280;4068;42.158;24.732;2022-08-01T07:13:56;99226.25;;;26.94;42.60
8051;BME280;4068;42.158;24.732;2022-08-01T07:16:22;99217.25;;;26.93;41.46
8051;BME280;4068;42.158;24.732;2022-08-01T07:18:47;99223.03;;;26.97;40.97
8051;BME280;4068;42.158;24.732;2022-08-01T07:21:13;99243.34;;;27.06;41.06
8051;BME280;4068;42.158;24.732;2022-08-01T07:23:38;99247.75;;;27.07;40.58
8051;BME280;4068;42.158;24.732;2022-08-01T07:26:04;99218.41;;;26.97;41.27
8051;BME280;4068;42.158;24.732;2022-08-01T07:28:30;99233.03;;;27.20;41.33
8051;BME280;4068;42.158;24.732;2022-08-01T07:30:56;99221.19;;;27.26;39.71
8051;BME280;4068;42.158;24.732;2022-08-01T07:33:22;99232.56;;;27.23;40.25
8051;BME280;4068;42.158;24.732;2022-08-01T07:35:48;99229.00;;;27.34;40.06
8051;BME280;4068;42.158;24.732;2022-08-01T07:38:13;99225.94;;;27.31;40.25
8051;BME280;4068;42.158;24.732;2022-08-01T07:40:40;99205.34;;;27.35;39.88
8051;BME280;4068;42.158;24.732;2022-08-01T07:43:05;99187.81;;;27.31;39.80
8051;BME280;4068;42.158;24.732;2022-08-01T07:45:31;99181.75;;;27.41;40.41
8051;BME280;4068;42.158;24.732;2022-08-01T07:47:56;99191.94;;;27.45;39.09
8051;BME280;4068;42.158;24.732;2022-08-01T07:50:22;99203.84;;;27.56;38.68
8051;BME280;4068;42.158;24.732;2022-08-01T07:52:47;99197.06;;;27.59;39.18
8051;BME280;4068;42.158;24.732;2022-08-01T07:55:12;99176.72;;;27.61;40.14
8051;BME280;4068;42.158;24.732;2022-08-01T07:57:38;99199.19;;;27.85;38.85
8051;BME280;4068;42.158;24.732;2022-08-01T08:00:05;99194.41;;;27.93;39.03
8051;BME280;4068;42.158;24.732;2022-08-01T08:02:31;99203.53;;;27.98;38.76
8051;BME280;4068;42.158;24.732;2022-08-01T08:04:57;99197.25;;;27.98;38.81
8051;BME280;4068;42.158;24.732;2022-08-01T08:07:22;99196.31;;;27.92;38.68
8051;BME280;4068;42.158;24.732;2022-08-01T08:09:48;99160.25;;;27.85;37.49
8051;BME280;4068;42.158;24.732;2022-08-01T08:12:13;99185.28;;;27.99;37.33
8051;BME280;4068;42.158;24.732;2022-08-01T08:14:39;99170.84;;;27.98;37.63
8051;BME280;4068;42.158;24.732;2022-08-01T08:17:05;99189.00;;;28.10;38.51
8051;BME280;4068;42.158;24.732;2022-08-01T08:19:31;99191.59;;;28.16;38.32
8051;BME280;4068;42.158;24.732;2022-08-01T08:22:01;99169.53;;;28.18;37.63
8051;BME280;4068;42.158;24.732;2022-08-01T08:24:26;99182.16;;;28.24;38.35
8051;BME280;4068;42.158;24.732;2022-08-01T08:26:56;99182.50;;;28.28;37.56
8051;BME280;4068;42.158;24.732;2022-08-01T08:29:22;99180.00;;;28.26;37.36
8051;BME280;4068;42.158;24.732;2022-08-01T08:31:48;99185.94;;;28.40;38.12
8051;BME280;4068;42.158;24.732;2022-08-01T08:34:14;99174.97;;;28.35;37.35
8051;BME280;4068;42.158;24.732;2022-08-01T08:36:40;99199.56;;;28.40;37.34
8051;BME280;4068;42.158;24.732;2022-08-01T08:39:06;99176.53;;;28.31;37.00
8051;BME280;4068;42.158;24.732;2022-08-01T08:41:35;99180.69;;;28.33;37.90
8051;BME280;4068;42.158;24.732;2022-08-01T08:44:05;99163.56;;;28.38;38.23
8051;BME280;4068;42.158;24.732;2022-08-01T08:46:32;99191.47;;;28.62;37.49
8051;BME280;4068;42.158;24.732;2022-08-01T08:49:02;99185.34;;;28.55;37.63
8051;BME280;4068;42.158;24.732;2022-08-01T08:51:30;99147.38;;;28.31;37.64
8051;BME280;4068;42.158;24.732;2022-08-01T08:53:57;99178.56;;;28.57;38.57
8051;BME280;4068;42.158;24.732;2022-08-01T08:56:26;99171.38;;;28.68;37.67
8051;BME280;4068;42.158;24.732;2022-08-01T08:58:55;99161.13;;;28.58;37.39
8051;BME280;4068;42.158;24.732;2022-08-01T09:01:20;99175.44;;;28.66;37.96
8051;BME280;4068;42.158;24.732;2022-08-01T09:03:47;99177.41;;;28.70;37.43
8051;BME280;4068;42.158;24.732;2022-08-01T09:06:12;99164.50;;;28.66;37.88
8051;BME280;4068;42.158;24.732;2022-08-01T09:08:39;99163.00;;;28.75;37.73
8051;BME280;4068;42.158;24.732;2022-08-01T09:11:06;99169.75;;;28.89;38.30
8051;BME280;4068;42.158;24.732;2022-08-01T09:13:31;99181.72;;;28.88;37.65
8051;BME280;4068;42.158;24.732;2022-08-01T09:15:57;99163.41;;;28.84;37.80
8051;BME280;4068;42.158;24.732;2022-08-01T09:18:41;99171.06;;;28.87;37.63
8051;BME280;4068;42.158;24.732;2022-08-01T09:21:15;99158.19;;;28.82;37.24
8051;BME280;4068;42.158;24.732;2022-08-01T09:26:12;99133.56;;;28.99;37.83
8051;BME280;4068;42.158;24.732;2022-08-01T09:28:38;99140.47;;;29.07;37.85
8051;BME280;4068;42.158;24.732;2022-08-01T09:31:10;99151.94;;;29.26;38.01
8051;BME280;4068;42.158;24.732;2022-08-01T09:36:15;99144.03;;;29.30;36.91
8051;BME280;4068;42.158;24.732;2022-08-01T09:38:41;99157.41;;;29.26;37.34
8051;BME280;4068;42.158;24.732;2022-08-01T09:41:06;99144.81;;;29.25;37.65
8051;BME280;4068;42.158;24.732;2022-08-01T09:43:33;99105.31;;;29.10;37.55
8051;BME280;4068;42.158;24.732;2022-08-01T09:46:00;99119.72;;;29.28;37.86
8051;BME280;4068;42.158;24.732;2022-08-01T09:48:29;99105.81;;;29.30;38.08
8051;BME280;4068;42.158;24.732;2022-08-01T09:50:57;99139.56;;;29.46;37.94
8051;BME280;4068;42.158;24.732;2022-08-01T09:53:23;99133.72;;;29.37;37.17
8051;BME280;4068;42.158;24.732;2022-08-01T09:55:49;99106.06;;;29.28;37.28
8051;BME280;4068;42.158;24.732;2022-08-01T09:58:17;99143.31;;;29.39;37.35
8051;BME280;4068;42.158;24.732;2022-08-01T10:00:57;99126.41;;;29.42;37.42
8051;BME280;4068;42.158;24.732;2022-08-01T10:03:25;99120.34;;;29.35;37.76
8051;BME280;4068;42.158;24.732;2022-08-01T10:05:52;99138.31;;;29.58;37.82
8051;BME280;4068;42.158;24.732;2022-08-01T10:08:19;99124.78;;;29.74;37.71
8051;BME280;4068;42.158;24.732;2022-08-01T10:11:04;99128.41;;;29.79;37.20
8051;BME280;4068;42.158;24.732;2022-08-01T10:13:32;99120.03;;;29.86;37.25
8051;BME280;4068;42.158;24.732;2022-08-01T10:15:57;99132.63;;;29.92;36.85
8051;BME280;4068;42.158;24.732;2022-08-01T10:18:24;99126.63;;;29.90;36.54
8051;BME280;4068;42.158;24.732;2022-08-01T10:20:49;99118.84;;;29.82;36.18
8051;BME280;4068;42.158;24.732;2022-08-01T10:23:15;99099.06;;;29.70;36.47
8051;BME280;4068;42.158;24.732;2022-08-01T10:25:43;99115.31;;;29.82;36.53
8051;BME280;4068;42.158;24.732;2022-08-01T10:28:17;99108.56;;;29.89;36.67
8051;BME280;4068;42.158;24.732;2022-08-01T10:30:44;99084.13;;;29.77;36.25
8051;BME280;4068;42.158;24.732;2022-08-01T10:33:10;99116.34;;;30.08;36.79
8051;BME280;4068;42.158;24.732;2022-08-01T10:35:38;99092.28;;;30.10;35.96
8051;BME280;4068;42.158;24.732;2022-08-01T10:38:04;99116.22;;;30.30;36.12
8051;BME280;4068;42.158;24.732;2022-08-01T10:40:30;99103.31;;;30.20;36.63
8051;BME280;4068;42.158;24.732;2022-08-01T10:42:56;99099.41;;;30.11;36.69
8051;BME280;4068;42.158;24.732;2022-08-01T10:45:22;99114.00;;;30.22;35.99
8051;BME280;4068;42.158;24.732;2022-08-01T10:47:53;99119.34;;;30.44;35.68
8051;BME280;4068;42.158;24.732;2022-08-01T10:50:44;99125.03;;;30.37;35.93
8051;BME280;4068;42.158;24.732;2022-08-01T10:53:13;99113.28;;;30.42;35.44
8051;BME280;4068;42.158;24.732;2022-08-01T10:55:56;99113.41;;;30.62;35.98
8051;BME280;4068;42.158;24.732;2022-08-01T10:58:28;99105.78;;;30.64;36.02
8051;BME280;4068;42.158;24.732;2022-08-01T11:03:38;99122.34;;;31.01;35.81
8051;BME280;4068;42.158;24.732;2022-08-01T11:06:04;99106.22;;;31.09;35.27
8051;BME280;4068;42.158;24.732;2022-08-01T11:08:30;99100.22;;;31.18;34.91
8051;BME280;4068;42.158;24.732;2022-08-01T11:11:02;99090.09;;;31.13;35.74
8051;BME280;4068;42.158;24.732;2022-08-01T11:16:30;99099.63;;;31.05;34.67
8051;BME280;4068;42.158;24.732;2022-08-01T11:18:55;99102.69;;;31.19;35.00
8051;BME280;4068;42.158;24.732;2022-08-01T11:21:21;99080.75;;;31.14;34.61
8051;BME280;4068;42.158;24.732;2022-08-01T11:23:50;99088.22;;;31.34;34.67
8051;BME280;4068;42.158;24.732;2022-08-01T11:26:19;99069.84;;;31.19;34.78
8051;BME280;4068;42.158;24.732;2022-08-01T11:29:10;99093.97;;;31.48;33.79
8051;BME280;4068;42.158;24.732;2022-08-01T11:31:33;99060.00;;;31.23;34.10
8051;BME280;4068;42.158;24.732;2022-08-01T11:33:59;99070.69;;;31.40;34.55
8051;BME280;4068;42.158;24.732;2022-08-01T11:36:26;99067.94;;;31.40;34.40
8051;BME280;4068;42.158;24.732;2022-08-01T11:41:25;99081.13;;;31.79;34.45
8051;BME280;4068;42.158;24.732;2022-08-01T11:44:04;99075.38;;;31.81;34.09
8051;BME280;4068;42.158;24.732;2022-08-01T11:46:53;99078.94;;;31.92;33.72
8051;BME280;4068;42.158;24.732;2022-08-01T11:54:30;99091.81;;;32.01;32.67
8051;BME280;4068;42.158;24.732;2022-08-01T11:57:01;99074.81;;;32.10;32.76
8051;BME280;4068;42.158;24.732;2022-08-01T11:59:26;99083.00;;;32.35;31.70
8051;BME280;4068;42.158;24.732;2022-08-01T12:01:52;99077.19;;;32.52;32.75
8051;BME280;4068;42.158;24.732;2022-08-01T12:04:18;99064.25;;;32.53;32.17
8051;BME280;4068;42.158;24.732;2022-08-01T12:06:44;99071.34;;;32.64;32.67
8051;BME280;4068;42.158;24.732;2022-08-01T12:09:35;99059.06;;;32.57;31.63
8051;BME280;4068;42.158;24.732;2022-08-01T12:12:01;99057.94;;;32.58;31.95
8051;BME280;4068;42.158;24.732;2022-08-01T12:14:26;99038.19;;;32.56;31.26
8051;BME280;4068;42.158;24.732;2022-08-01T12:16:52;99068.88;;;32.73;32.05
8051;BME280;4068;42.158;24.732;2022-08-01T12:19:23;99074.06;;;32.80;31.33
8051;BME280;4068;42.158;24.732;2022-08-01T12:22:05;99071.38;;;32.69;31.62
8051;BME280;4068;42.158;24.732;2022-08-01T12:24:35;99050.66;;;32.93;30.75
8051;BME280;4068;42.158;24.732;2022-08-01T12:27:03;99058.06;;;32.92;31.40
8051;BME280;4068;42.158;24.732;2022-08-01T12:29:42;99058.03;;;33.02;31.40
8051;BME280;4068;42.158;24.732;2022-08-01T12:32:26;99055.66;;;33.30;30.51
8051;BME280;4068;42.158;24.732;2022-08-01T12:34:53;99027.66;;;33.28;30.34
8051;BME280;4068;42.158;24.732;2022-08-01T12:37:20;99036.94;;;33.67;30.46
8051;BME280;4068;42.158;24.732;2022-08-01T12:39:46;99036.56;;;33.84;29.84
8051;BME280;4068;42.158;24.732;2022-08-01T12:42:12;99030.16;;;33.88;30.12
8051;BME280;4068;42.158;24.732;2022-08-01T12:44:38;99050.88;;;33.81;30.08
8051;BME280;4068;42.158;24.732;2022-08-01T12:47:08;98995.97;;;33.41;29.86
8051;BME280;4068;42.158;24.732;2022-08-01T12:49:35;99053.59;;;33.46;30.37
8051;BME280;4068;42.158;24.732;2022-08-01T12:52:02;99046.19;;;33.47;30.25
8051;BME280;4068;42.158;24.732;2022-08-01T12:54:28;99043.03;;;33.64;30.31
8051;BME280;4068;42.158;24.732;2022-08-01T12:56:53;99034.72;;;33.69;30.22
8051;BME280;4068;42.158;24.732;2022-08-01T12:59:20;99036.88;;;33.72;30.19
8051;BME280;4068;42.158;24.732;2022-08-01T13:01:48;99034.84;;;33.53;30.48
8051;BME280;4068;42.158;24.732;2022-08-01T13:04:13;99048.41;;;33.45;30.87
8051;BME280;4068;42.158;24.732;2022-08-01T13:06:39;99028.97;;;33.36;30.76
8051;BME280;4068;42.158;24.732;2022-08-01T13:09:06;99041.78;;;33.46;30.56
8051;BME280;4068;42.158;24.732;2022-08-01T13:11:31;99051.03;;;33.26;30.48
8051;BME280;4068;42.158;24.732;2022-08-01T13:13:57;99034.69;;;33.00;31.12
8051;BME280;4068;42.158;24.732;2022-08-01T13:16:24;99038.31;;;32.90;31.44
8051;BME280;4068;42.158;24.732;2022-08-01T13:18:54;99032.44;;;33.07;31.27
8051;BME280;4068;42.158;24.732;2022-08-01T13:21:27;99037.75;;;32.93;31.33
8051;BME280;4068;42.158;24.732;2022-08-01T13:24:10;99016.63;;;32.89;31.60
8051;BME280;4068;42.158;24.732;2022-08-01T13:26:49;99031.47;;;32.88;31.40
8051;BME280;4068;42.158;24.732;2022-08-01T13:29:38;99027.97;;;32.72;31.75
8051;BME280;4068;42.158;24.732;2022-08-01T13:32:17;99023.88;;;32.74;31.67
8051;BME280;4068;42.158;24.732;2022-08-01T13:34:44;99014.25;;;32.72;31.75
8051;BME280;4068;42.158;24.732;2022-08-01T13:37:09;99016.09;;;32.86;30.98
8051;BME280;4068;42.158;24.732;2022-08-01T13:39:35;99009.94;;;33.05;31.02
8051;BME280;4068;42.158;24.732;2022-08-01T13:42:10;99003.50;;;33.20;31.31
8051;BME280;4068;42.158;24.732;2022-08-01T13:44:36;99009.31;;;33.24;31.05
8051;BME280;4068;42.158;24.732;2022-08-01T13:47:03;99023.16;;;33.43;30.56